createdAt,value
2018-08-08T00:02:10.464Z,54.20
2018-08-08T00:04:38.936Z,54.10
2018-08-08T00:07:07.582Z,54.10
2018-08-08T00:09:35.952Z,54.30
2018-08-08T00:12:04.357Z,54.20
2018-08-08T00:14:32.703Z,53.90
2018-08-08T00:17:01.147Z,54.30
2018-08-08T00:19:29.482Z,54.50
2018-08-08T00:21:58.231Z,54.40
2018-08-08T00:24:26.725Z,54.50
2018-08-08T00:26:55.509Z,54.30
2018-08-08T00:29:23.907Z,54.30
2018-08-08T00:31:52.275Z,54.40
2018-08-08T00:34:20.597Z,54.40
2018-08-08T00:36:48.925Z,54.40
2018-08-08T00:39:17.261Z,55.10
2018-08-08T00:41:45.706Z,54.50
2018-08-08T00:44:14.099Z,54.50
2018-08-08T00:46:42.465Z,54.60
2018-08-08T00:49:10.758Z,54.70
2018-08-08T00:51:39.068Z,54.30
2018-08-08T00:54:07.526Z,54.30
2018-08-08T00:56:36.462Z,54.60
2018-08-08T00:59:04.835Z,54.40
2018-08-08T01:01:33.411Z,54.60
2018-08-08T01:04:01.965Z,54.60
2018-08-08T01:06:30.477Z,54.60
2018-08-08T01:08:59.007Z,54.60
2018-08-08T01:11:27.234Z,54.50
2018-08-08T01:13:55.582Z,54.50
2018-08-08T01:16:24.007Z,54.60
2018-08-08T01:18:52.357Z,54.70
2018-08-08T01:21:20.784Z,54.80
2018-08-08T01:23:49.155Z,54.60
2018-08-08T01:26:17.532Z,54.70
2018-08-08T01:28:45.905Z,54.80
2018-08-08T01:31:14.331Z,54.80
2018-08-08T01:33:42.688Z,54.90
2018-08-08T01:36:11.130Z,54.80
2018-08-08T01:38:39.558Z,54.80
2018-08-08T01:41:07.994Z,55.00
2018-08-08T01:43:36.437Z,55.50
2018-08-08T01:46:04.882Z,54.80
2018-08-08T01:48:33.212Z,55.60
2018-08-08T01:51:01.510Z,55.10
2018-08-08T01:53:29.862Z,55.20
2018-08-08T01:55:58.309Z,55.10
2018-08-08T01:58:26.781Z,55.30
2018-08-08T02:00:55.152Z,55.40
2018-08-08T02:03:23.632Z,55.50
2018-08-08T02:05:56.658Z,55.50
2018-08-08T02:08:25.221Z,55.60
2018-08-08T02:10:53.576Z,55.60
2018-08-08T02:13:21.995Z,55.60
2018-08-08T02:15:50.341Z,55.70
2018-08-08T02:18:18.732Z,55.70
2018-08-08T02:20:47.164Z,55.80
2018-08-08T02:23:15.506Z,55.70
2018-08-08T02:25:44.096Z,55.70
2018-08-08T02:28:12.420Z,55.50
2018-08-08T02:30:40.824Z,55.40
2018-08-08T02:33:09.162Z,55.80
2018-08-08T02:35:37.540Z,56.20
2018-08-08T02:38:06.096Z,56.50
2018-08-08T02:40:34.544Z,56.70
2018-08-08T02:43:02.870Z,56.70
2018-08-08T02:45:31.216Z,56.70
2018-08-08T02:47:59.540Z,56.80
2018-08-08T02:50:27.979Z,56.80
2018-08-08T02:52:56.439Z,56.70
2018-08-08T02:55:24.785Z,56.70
2018-08-08T02:57:53.288Z,56.80
2018-08-08T03:00:21.812Z,56.70
2018-08-08T03:02:50.394Z,56.80
2018-08-08T03:05:18.796Z,56.80
2018-08-08T03:07:47.142Z,56.90
2018-08-08T03:10:17.027Z,56.80
2018-08-08T03:12:45.595Z,56.80
2018-08-08T03:15:15.957Z,56.80
2018-08-08T03:17:44.278Z,56.70
2018-08-08T03:20:14.230Z,56.80
2018-08-08T03:22:43.333Z,56.70
2018-08-08T03:25:13.346Z,56.70
2018-08-08T03:27:42.100Z,56.60
2018-08-08T03:30:14.228Z,56.60
2018-08-08T03:32:42.776Z,56.70
2018-08-08T03:35:11.112Z,56.80
2018-08-08T03:37:39.513Z,56.90
2018-08-08T03:40:09.608Z,57.00
2018-08-08T03:42:38.135Z,57.20
2018-08-08T03:45:07.300Z,57.30
2018-08-08T03:47:35.869Z,57.60
2018-08-08T03:50:04.886Z,57.70
2018-08-08T03:52:33.250Z,57.80
2018-08-08T03:55:01.728Z,57.80
2018-08-08T03:57:30.188Z,57.70
2018-08-08T03:59:58.572Z,57.60
2018-08-08T04:02:27.166Z,57.80
2018-08-08T04:04:55.740Z,57.70
2018-08-08T04:07:24.099Z,57.40
2018-08-08T04:09:52.422Z,57.60
2018-08-08T04:12:20.787Z,57.60
2018-08-08T04:14:49.214Z,57.50
2018-08-08T04:17:23.987Z,57.00
2018-08-08T04:19:53.095Z,56.80
2018-08-08T04:22:21.464Z,56.90
2018-08-08T04:24:49.869Z,56.90
2018-08-08T04:27:18.587Z,57.00
2018-08-08T04:29:47.257Z,56.50
2018-08-08T04:32:15.660Z,56.10
2018-08-08T04:34:44.184Z,55.60
2018-08-08T04:37:12.656Z,55.80
2018-08-08T04:39:41.031Z,56.20
2018-08-08T04:42:09.376Z,56.10
2018-08-08T04:44:37.763Z,55.80
2018-08-08T04:47:06.825Z,55.90
2018-08-08T04:49:35.465Z,56.10
2018-08-08T04:52:03.948Z,56.40
2018-08-08T04:54:32.307Z,56.50
2018-08-08T04:57:00.619Z,56.80
2018-08-08T04:59:28.999Z,56.90
2018-08-08T05:01:57.375Z,57.00
2018-08-08T05:04:25.782Z,57.10
2018-08-08T05:06:54.219Z,57.10
2018-08-08T05:09:22.569Z,57.10
2018-08-08T05:11:51.435Z,57.10
2018-08-08T05:14:19.753Z,57.00
2018-08-08T05:16:48.239Z,56.90
2018-08-08T05:19:16.818Z,57.10
2018-08-08T05:21:45.478Z,57.00
2018-08-08T05:24:14.252Z,57.10
2018-08-08T05:26:43.367Z,57.10
2018-08-08T05:29:11.869Z,57.20
2018-08-08T05:31:40.606Z,57.50
2018-08-08T05:34:08.986Z,57.30
2018-08-08T05:36:37.571Z,57.90
2018-08-08T05:39:09.845Z,57.90
2018-08-08T05:41:38.424Z,57.90
2018-08-08T05:44:06.947Z,57.80
2018-08-08T05:46:35.523Z,57.70
2018-08-08T05:49:03.989Z,57.70
2018-08-08T05:51:32.516Z,57.70
2018-08-08T05:54:01.005Z,57.70
2018-08-08T05:56:29.417Z,57.60
2018-08-08T05:58:57.952Z,57.60
2018-08-08T06:01:26.369Z,58.00
2018-08-08T06:03:54.911Z,58.80
2018-08-08T06:06:23.574Z,58.80
2018-08-08T06:08:52.012Z,58.60
2018-08-08T06:11:27.446Z,58.50
2018-08-08T06:13:55.878Z,57.70
2018-08-08T06:16:24.477Z,58.30
2018-08-08T06:18:52.855Z,58.30
2018-08-08T06:21:21.312Z,58.40
2018-08-08T06:23:49.686Z,58.50
2018-08-08T06:26:18.110Z,58.60
2018-08-08T06:28:46.592Z,58.70
2018-08-08T06:31:14.972Z,58.70
2018-08-08T06:33:43.436Z,58.80
2018-08-08T06:36:11.762Z,58.80
2018-08-08T06:38:40.202Z,58.80
2018-08-08T06:41:08.532Z,59.00
2018-08-08T06:43:37.129Z,58.80
2018-08-08T06:46:05.518Z,58.80
2018-08-08T06:48:34.252Z,58.90
2018-08-08T06:51:02.622Z,58.90
2018-08-08T06:53:31.075Z,58.80
2018-08-08T06:55:59.608Z,58.70
2018-08-08T06:58:28.346Z,58.60
2018-08-08T07:00:56.782Z,58.60
2018-08-08T07:03:25.171Z,58.60
2018-08-08T07:05:53.606Z,58.60
2018-08-08T07:08:22.411Z,58.60
2018-08-08T07:10:50.928Z,58.50
2018-08-08T07:13:19.373Z,58.40
2018-08-08T07:15:47.929Z,58.20
2018-08-08T07:18:16.312Z,58.30
2018-08-08T07:20:44.790Z,58.30
2018-08-08T07:23:13.263Z,58.30
2018-08-08T07:25:41.828Z,58.30
2018-08-08T07:28:10.173Z,58.50
2018-08-08T07:30:38.800Z,58.60
2018-08-08T07:33:08.405Z,58.60
2018-08-08T07:35:37.016Z,58.60
2018-08-08T07:38:05.579Z,59.50
2018-08-08T07:40:34.071Z,59.00
2018-08-08T07:43:02.379Z,59.10
2018-08-08T07:45:30.734Z,59.20
2018-08-08T07:47:59.077Z,59.30
2018-08-08T07:50:27.698Z,59.10
2018-08-08T07:52:56.235Z,59.40
2018-08-08T07:55:24.991Z,59.60
2018-08-08T07:57:53.550Z,59.70
2018-08-08T08:00:25.218Z,60.00
2018-08-08T08:02:54.089Z,59.70
2018-08-08T08:05:22.909Z,59.80
2018-08-08T08:07:51.533Z,59.70
2018-08-08T08:10:19.916Z,59.40
2018-08-08T08:12:48.288Z,59.20
2018-08-08T08:15:16.643Z,59.10
2018-08-08T08:17:45.357Z,59.00
2018-08-08T08:20:15.750Z,58.90
2018-08-08T08:22:44.983Z,58.90
2018-08-08T08:25:13.424Z,58.80
2018-08-08T08:27:41.948Z,58.80
2018-08-08T08:30:13.237Z,58.90
2018-08-08T08:32:42.063Z,59.00
2018-08-08T08:35:10.537Z,58.90
2018-08-08T08:37:38.877Z,58.90
2018-08-08T08:40:08.427Z,58.90
2018-08-08T08:42:36.849Z,58.50
2018-08-08T08:45:05.828Z,58.20
2018-08-08T08:47:34.553Z,57.90
2018-08-08T08:50:03.066Z,57.90
2018-08-08T08:52:31.350Z,58.00
2018-08-08T08:54:59.807Z,58.20
2018-08-08T08:57:28.123Z,58.30
2018-08-08T08:59:56.596Z,58.30
2018-08-08T09:02:24.947Z,58.30
2018-08-08T09:04:53.365Z,58.30
2018-08-08T09:07:21.770Z,58.10
2018-08-08T09:09:50.276Z,58.30
2018-08-08T09:12:18.725Z,58.00
2018-08-08T09:14:47.047Z,57.80
2018-08-08T09:17:15.390Z,57.90
2018-08-08T09:19:43.734Z,57.90
2018-08-08T09:22:12.062Z,58.00
2018-08-08T09:24:40.502Z,57.80
2018-08-08T09:27:08.903Z,57.80
2018-08-08T09:29:40.932Z,57.90
2018-08-08T09:32:09.264Z,58.10
2018-08-08T09:34:37.598Z,57.80
2018-08-08T09:37:06.042Z,57.50
2018-08-08T09:39:34.386Z,57.70
2018-08-08T09:42:02.701Z,57.60
2018-08-08T09:44:31.148Z,57.40
2018-08-08T09:46:59.633Z,57.10
2018-08-08T09:49:28.106Z,57.00
2018-08-08T09:51:56.452Z,57.10
2018-08-08T09:54:24.816Z,57.20
2018-08-08T09:56:53.186Z,57.20
2018-08-08T09:59:21.617Z,58.10
2018-08-08T10:01:55.522Z,57.40
2018-08-08T10:04:29.573Z,57.40
2018-08-08T10:07:00.424Z,57.30
2018-08-08T10:09:28.781Z,57.40
2018-08-08T10:11:57.163Z,57.50
2018-08-08T10:14:25.519Z,57.50
2018-08-08T10:16:54.051Z,57.40
2018-08-08T10:19:22.687Z,57.50
2018-08-08T10:21:51.388Z,57.40
2018-08-08T10:24:19.766Z,57.20
2018-08-08T10:26:48.592Z,56.70
2018-08-08T10:29:17.155Z,56.40
2018-08-08T10:31:45.507Z,56.40
2018-08-08T10:34:13.969Z,56.40
2018-08-08T10:36:42.331Z,56.30
2018-08-08T10:39:12.369Z,56.20
2018-08-08T10:41:41.281Z,56.00
2018-08-08T10:44:10.075Z,56.20
2018-08-08T10:46:38.449Z,56.10
2018-08-08T10:49:06.925Z,56.10
2018-08-08T10:51:35.269Z,55.90
2018-08-08T10:54:03.620Z,55.80
2018-08-08T10:56:31.957Z,56.00
2018-08-08T10:59:00.356Z,55.90
2018-08-08T11:01:29.008Z,55.40
2018-08-08T11:03:57.436Z,55.60
2018-08-08T11:06:25.779Z,55.40
2018-08-08T11:08:54.143Z,55.40
2018-08-08T11:11:22.634Z,55.50
2018-08-08T11:13:51.098Z,55.50
2018-08-08T11:16:19.976Z,55.70
2018-08-08T11:18:48.384Z,55.60
2018-08-08T11:21:16.694Z,55.80
2018-08-08T11:23:45.128Z,56.10
2018-08-08T11:26:13.482Z,55.80
2018-08-08T11:28:41.862Z,55.80
2018-08-08T11:31:10.474Z,55.80
2018-08-08T11:33:38.845Z,55.80
2018-08-08T11:36:07.229Z,55.70
2018-08-08T11:38:35.616Z,55.70
2018-08-08T11:41:04.129Z,55.90
2018-08-08T11:43:32.481Z,55.80
2018-08-08T11:46:00.931Z,55.60
2018-08-08T11:48:29.299Z,55.30
2018-08-08T11:50:57.790Z,55.10
2018-08-08T11:53:26.367Z,54.90
2018-08-08T11:55:54.731Z,54.80
2018-08-08T11:58:23.074Z,54.70
2018-08-08T12:00:51.485Z,54.70
2018-08-08T12:03:19.841Z,55.10
2018-08-08T12:05:48.211Z,54.50
2018-08-08T12:08:16.737Z,54.30
2018-08-08T12:10:45.139Z,54.30
2018-08-08T12:13:13.480Z,54.20
2018-08-08T12:15:41.876Z,54.10
2018-08-08T12:18:10.331Z,54.60
2018-08-08T12:20:38.667Z,53.80
2018-08-08T12:23:07.219Z,53.70
2018-08-08T12:25:35.594Z,54.00
2018-08-08T12:28:04.135Z,54.00
2018-08-08T12:30:32.517Z,54.00
2018-08-08T12:33:01.055Z,53.90
2018-08-08T12:35:29.555Z,53.70
2018-08-08T12:37:57.843Z,53.70
2018-08-08T12:40:26.239Z,53.70
2018-08-08T12:42:54.553Z,53.70
2018-08-08T12:45:22.949Z,54.20
2018-08-08T12:47:51.691Z,53.60
2018-08-08T12:50:20.035Z,53.50
2018-08-08T12:52:48.506Z,53.50
2018-08-08T12:55:17.776Z,53.50
2018-08-08T12:57:46.174Z,53.40
2018-08-08T13:00:14.530Z,53.40
2018-08-08T13:02:43.000Z,53.50
2018-08-08T13:05:12.639Z,53.50
2018-08-08T13:07:41.003Z,53.40
2018-08-08T13:10:09.428Z,53.40
2018-08-08T13:12:37.905Z,53.30
2018-08-08T13:15:07.270Z,53.40
2018-08-08T13:17:35.741Z,54.10
2018-08-08T13:20:04.616Z,53.40
2018-08-08T13:22:33.068Z,53.10
2018-08-08T13:25:01.605Z,53.10
2018-08-08T13:27:30.072Z,53.10
2018-08-08T13:29:58.601Z,53.10
2018-08-08T13:32:27.035Z,53.20
2018-08-08T13:34:55.479Z,53.20
2018-08-08T13:37:23.940Z,53.20
2018-08-08T13:39:52.468Z,53.20
2018-08-08T13:42:20.822Z,53.10
2018-08-08T13:44:49.207Z,53.10
2018-08-08T13:47:17.562Z,53.10
2018-08-08T13:49:45.984Z,53.00
2018-08-08T13:52:14.352Z,53.10
2018-08-08T13:54:43.546Z,53.10
2018-08-08T13:57:11.929Z,53.10
2018-08-08T13:59:40.334Z,53.70
2018-08-08T14:02:08.708Z,53.10
2018-08-08T14:04:37.121Z,53.10
2018-08-08T14:07:05.697Z,53.00
2018-08-08T14:09:34.155Z,53.00
2018-08-08T14:12:02.559Z,53.00
2018-08-08T14:14:31.467Z,52.90
2018-08-08T14:16:59.824Z,53.20
2018-08-08T14:19:28.183Z,53.30
2018-08-08T14:21:56.531Z,53.40
2018-08-08T14:24:24.864Z,53.40
2018-08-08T14:26:53.446Z,53.40
2018-08-08T14:29:21.936Z,53.20
2018-08-08T14:31:50.903Z,53.10
2018-08-08T14:34:19.408Z,53.20
2018-08-08T14:36:47.866Z,53.20
2018-08-08T14:39:16.237Z,53.10
2018-08-08T14:41:44.662Z,53.20
2018-08-08T14:44:13.031Z,53.70
2018-08-08T14:46:41.696Z,52.30
2018-08-08T14:49:10.811Z,52.40
2018-08-08T14:51:39.354Z,51.50
2018-08-08T14:54:07.903Z,51.30
2018-08-08T14:56:36.270Z,51.50
2018-08-08T14:59:04.855Z,51.10
2018-08-08T15:01:33.685Z,51.90
2018-08-08T15:04:02.042Z,51.00
2018-08-08T15:06:30.409Z,51.20
2018-08-08T15:08:59.131Z,51.20
2018-08-08T15:11:27.646Z,51.10
2018-08-08T15:13:56.129Z,51.10
2018-08-08T15:16:24.504Z,51.00
2018-08-08T15:18:53.160Z,51.20
2018-08-08T15:21:21.669Z,51.00
2018-08-08T15:23:50.051Z,51.60
2018-08-08T15:26:18.525Z,51.10
2018-08-08T15:28:47.131Z,51.30
2018-08-08T15:31:15.900Z,51.40
2018-08-08T15:33:44.210Z,50.60
2018-08-08T15:36:12.652Z,50.40
2018-08-08T15:38:41.156Z,50.60
2018-08-08T15:41:09.526Z,51.20
2018-08-08T15:43:37.978Z,50.80
2018-08-08T15:46:06.743Z,50.90
2018-08-08T15:48:35.130Z,50.80
2018-08-08T15:51:03.528Z,51.00
2018-08-08T15:53:31.917Z,51.20
2018-08-08T15:56:00.394Z,51.00
2018-08-08T15:58:28.798Z,51.00
2018-08-08T16:00:57.306Z,51.10
2018-08-08T16:03:25.734Z,51.20
2018-08-08T16:05:54.638Z,51.40
2018-08-08T16:08:23.129Z,51.00
2018-08-08T16:10:51.473Z,51.10
2018-08-08T16:13:19.961Z,51.10
2018-08-08T16:15:48.531Z,51.30
2018-08-08T16:18:17.021Z,52.10
2018-08-08T16:20:45.410Z,51.60
2018-08-08T16:23:13.901Z,51.50
2018-08-08T16:25:42.464Z,51.60
2018-08-08T16:28:11.052Z,51.50
2018-08-08T16:30:39.479Z,51.40
2018-08-08T16:33:08.129Z,51.40
2018-08-08T16:35:36.561Z,51.20
2018-08-08T16:38:04.981Z,51.60
2018-08-08T16:40:33.733Z,51.60
2018-08-08T16:43:02.203Z,51.70
2018-08-08T16:45:30.612Z,51.80
2018-08-08T16:47:58.965Z,51.60
2018-08-08T16:50:27.467Z,51.60
2018-08-08T16:52:55.965Z,52.00
2018-08-08T16:55:24.359Z,52.00
2018-08-08T16:57:52.787Z,52.20
2018-08-08T17:00:21.359Z,52.10
2018-08-08T17:02:49.731Z,51.80
2018-08-08T17:05:18.159Z,52.10
2018-08-08T17:07:46.537Z,51.90
2018-08-08T17:10:14.973Z,51.60
2018-08-08T17:12:43.561Z,51.70
2018-08-08T17:15:12.083Z,52.00
2018-08-08T17:17:40.637Z,52.10
2018-08-08T17:20:09.065Z,51.80
2018-08-08T17:22:37.576Z,51.90
2018-08-08T17:25:06.811Z,52.20
2018-08-08T17:27:35.644Z,52.40
2018-08-08T17:30:04.999Z,52.30
2018-08-08T17:32:33.623Z,52.00
2018-08-08T17:35:02.097Z,52.10
2018-08-08T17:37:30.565Z,52.10
2018-08-08T17:39:59.127Z,51.90
2018-08-08T17:42:27.683Z,51.70
2018-08-08T17:44:56.204Z,51.80
2018-08-08T17:47:24.644Z,51.80
2018-08-08T17:49:53.060Z,51.80
2018-08-08T17:52:21.537Z,51.80
2018-08-08T17:54:50.018Z,51.90
2018-08-08T17:57:18.456Z,52.10
2018-08-08T17:59:46.935Z,52.30
2018-08-08T18:02:15.478Z,52.30
2018-08-08T18:04:43.992Z,52.40
2018-08-08T18:07:12.388Z,52.70
2018-08-08T18:09:40.826Z,52.70
2018-08-08T18:12:09.620Z,52.60
2018-08-08T18:14:37.992Z,52.40
2018-08-08T18:17:06.507Z,52.70
2018-08-08T18:19:34.901Z,52.90
2018-08-08T18:22:03.458Z,53.20
2018-08-08T18:24:32.775Z,53.30
2018-08-08T18:27:01.329Z,52.70
2018-08-08T18:29:29.750Z,52.70
2018-08-08T18:31:58.418Z,53.00
2018-08-08T18:34:26.854Z,53.50
2018-08-08T18:36:55.360Z,53.70
2018-08-08T18:39:23.724Z,53.70
2018-08-08T18:41:52.202Z,53.70
2018-08-08T18:44:20.590Z,53.70
2018-08-08T18:46:49.244Z,53.70
2018-08-08T18:49:17.600Z,53.90
2018-08-08T18:51:46.005Z,54.10
2018-08-08T18:54:14.362Z,54.00
2018-08-08T18:56:42.869Z,54.30
2018-08-08T18:59:11.421Z,54.50
2018-08-08T19:01:39.830Z,54.70
2018-08-08T19:04:08.224Z,55.00
2018-08-08T19:06:36.693Z,55.10
2018-08-08T19:09:07.337Z,55.30
2018-08-08T19:11:35.786Z,55.40
2018-08-08T19:14:04.441Z,55.90
2018-08-08T19:16:32.982Z,55.20
2018-08-08T19:19:01.521Z,55.20
2018-08-08T19:21:30.030Z,55.20
2018-08-08T19:23:59.028Z,55.20
2018-08-08T19:26:27.400Z,55.20
2018-08-08T19:28:55.846Z,55.30
2018-08-08T19:31:24.497Z,55.30
2018-08-08T19:33:53.116Z,55.30
2018-08-08T19:36:21.491Z,55.50
2018-08-08T19:38:50.034Z,55.60
2018-08-08T19:41:18.397Z,55.50
2018-08-08T19:43:46.974Z,55.60
2018-08-08T19:46:15.710Z,55.60
2018-08-08T19:48:44.099Z,55.60
2018-08-08T19:51:12.444Z,55.70
2018-08-08T19:53:40.834Z,55.70
2018-08-08T19:56:09.208Z,55.80
2018-08-08T19:58:37.754Z,55.80
2018-08-08T20:01:06.294Z,55.80
2018-08-08T20:03:34.769Z,55.80
2018-08-08T20:06:03.181Z,55.80
2018-08-08T20:08:31.573Z,55.80
2018-08-08T20:10:59.914Z,55.90
2018-08-08T20:13:28.420Z,55.90
2018-08-08T20:15:58.548Z,55.90
2018-08-08T20:18:26.948Z,55.90
2018-08-08T20:20:56.268Z,56.00
2018-08-08T20:23:25.008Z,56.00
2018-08-08T20:25:53.389Z,56.00
2018-08-08T20:28:21.872Z,56.00
2018-08-08T20:30:50.949Z,56.10
2018-08-08T20:33:20.154Z,56.10
2018-08-08T20:35:49.351Z,56.10
2018-08-08T20:38:18.422Z,56.10
2018-08-08T20:40:46.905Z,56.20
2018-08-08T20:43:15.499Z,56.20
2018-08-08T20:45:44.008Z,56.20
2018-08-08T20:48:12.527Z,56.30
2018-08-08T20:50:40.972Z,56.30
2018-08-08T20:53:09.547Z,56.30
2018-08-08T20:55:38.080Z,56.40
2018-08-08T20:58:06.506Z,56.40
2018-08-08T21:00:34.941Z,57.00
2018-08-08T21:03:03.533Z,56.40
2018-08-08T21:05:31.920Z,56.50
2018-08-08T21:08:00.284Z,56.50
2018-08-08T21:10:28.999Z,57.20
2018-08-08T21:12:57.574Z,56.60
2018-08-08T21:15:26.080Z,56.50
2018-08-08T21:17:54.425Z,56.50
2018-08-08T21:20:22.810Z,57.40
2018-08-08T21:22:51.252Z,56.50
2018-08-08T21:25:19.793Z,56.60
2018-08-08T21:27:48.129Z,56.50
2018-08-08T21:30:16.756Z,56.60
2018-08-08T21:32:44.993Z,56.60
2018-08-08T21:35:14.389Z,56.70
2018-08-08T21:37:42.789Z,56.70
2018-08-08T21:40:11.191Z,56.60
2018-08-08T21:42:39.563Z,56.60
2018-08-08T21:45:08.110Z,56.70
2018-08-08T21:47:36.787Z,56.70
2018-08-08T21:50:06.204Z,56.70
2018-08-08T21:52:34.978Z,56.70
2018-08-08T21:55:14.784Z,56.70
2018-08-08T21:57:54.595Z,56.80
2018-08-08T22:00:34.194Z,56.90
2018-08-08T22:04:17.737Z,56.90
2018-08-08T22:06:57.608Z,56.90
2018-08-08T22:09:37.323Z,56.90
2018-08-08T22:12:17.008Z,56.80
2018-08-08T22:14:56.738Z,56.90
2018-08-08T22:17:36.401Z,56.90
2018-08-08T22:20:05.602Z,56.90
2018-08-08T22:22:34.221Z,56.90
2018-08-08T22:25:02.680Z,56.80
2018-08-08T22:27:31.136Z,56.80
2018-08-08T22:29:59.487Z,56.80
2018-08-08T22:32:27.838Z,56.80
2018-08-08T22:34:56.449Z,57.40
2018-08-08T22:37:24.798Z,56.80
2018-08-08T22:39:53.127Z,56.80
2018-08-08T22:42:21.788Z,56.80
2018-08-08T22:44:50.156Z,56.80
2018-08-08T22:47:18.526Z,56.70
2018-08-08T22:49:46.854Z,56.80
2018-08-08T22:52:15.326Z,56.70
2018-08-08T22:54:43.806Z,56.70
2018-08-08T22:57:12.284Z,56.70
2018-08-08T22:59:40.613Z,56.70
2018-08-08T23:02:08.964Z,56.70
2018-08-08T23:04:37.542Z,56.70
2018-08-08T23:07:06.142Z,57.30
2018-08-08T23:09:34.532Z,56.60
2018-08-08T23:12:04.134Z,56.70
2018-08-08T23:14:32.800Z,56.70
2018-08-08T23:17:01.186Z,56.70
2018-08-08T23:19:29.613Z,56.50
2018-08-08T23:21:58.008Z,56.60
2018-08-08T23:24:26.487Z,56.50
2018-08-08T23:26:54.993Z,56.60
2018-08-08T23:29:23.345Z,56.60
2018-08-08T23:31:51.780Z,57.20
2018-08-08T23:34:20.109Z,56.60
2018-08-08T23:36:48.585Z,56.50
2018-08-08T23:39:16.987Z,56.50
2018-08-08T23:41:45.534Z,56.50
2018-08-08T23:44:14.010Z,57.20
2018-08-08T23:46:42.507Z,56.50
2018-08-08T23:49:10.801Z,56.50
2018-08-08T23:51:39.313Z,56.60
2018-08-08T23:54:07.798Z,57.30
2018-08-08T23:56:36.153Z,56.50
2018-08-08T23:59:04.489Z,56.50
